createdAt,value
2023-01-12T00:01:52.721Z,95882.25
2023-01-12T00:04:20.034Z,95872.84
2023-01-12T00:06:47.289Z,95883.66
2023-01-12T00:09:14.017Z,95890.41
2023-01-12T00:11:41.056Z,95887.47
2023-01-12T00:14:09.050Z,95886.13
2023-01-12T00:16:35.996Z,95878.81
2023-01-12T00:19:23.798Z,95879.72
2023-01-12T00:21:58.555Z,95891.97
2023-01-12T00:24:39.906Z,95897.63
2023-01-12T00:27:09.681Z,95905.75
2023-01-12T00:29:37.256Z,95913.38
2023-01-12T00:32:05.924Z,95918.00
2023-01-12T00:34:32.703Z,95915.94
2023-01-12T00:37:04.796Z,95911.66
2023-01-12T00:39:31.513Z,95896.84
2023-01-12T00:41:57.993Z,95892.56
2023-01-12T00:44:24.824Z,95892.06
2023-01-12T00:46:51.444Z,95880.47
2023-01-12T00:49:18.079Z,95882.41
2023-01-12T00:51:44.637Z,95879.75
2023-01-12T00:54:11.419Z,95875.47
2023-01-12T00:56:38.872Z,95885.50
2023-01-12T00:59:05.762Z,95898.22
2023-01-12T01:01:33.563Z,95895.81
2023-01-12T01:04:00.893Z,95902.06
2023-01-12T01:06:27.444Z,95893.47
2023-01-12T01:08:54.142Z,95892.69
2023-01-12T01:11:20.702Z,95888.41
2023-01-12T01:13:47.416Z,95888.72
2023-01-12T01:16:15.720Z,95896.28
2023-01-12T01:18:42.503Z,95897.41
2023-01-12T01:21:11.088Z,95902.00
2023-01-12T01:23:38.462Z,95897.97
2023-01-12T01:26:10.561Z,95899.09
2023-01-12T01:28:37.191Z,95896.66
2023-01-12T01:31:11.666Z,95904.50
2023-01-12T01:33:38.600Z,95901.84
2023-01-12T01:36:06.203Z,95900.75
2023-01-12T01:38:33.505Z,95887.56
2023-01-12T01:41:00.221Z,95886.50
2023-01-12T01:43:28.313Z,95887.34
2023-01-12T01:46:10.969Z,95904.59
2023-01-12T01:48:39.595Z,95898.66
2023-01-12T01:51:11.946Z,95895.19
2023-01-12T01:53:42.175Z,95896.00
2023-01-12T01:56:12.947Z,95888.47
2023-01-12T01:58:54.060Z,95887.66
2023-01-12T02:01:21.010Z,95882.25
2023-01-12T02:03:48.053Z,95883.06
2023-01-12T02:06:15.329Z,95883.66
2023-01-12T02:08:51.108Z,95888.47
2023-01-12T02:11:18.252Z,95893.59
2023-01-12T02:13:44.752Z,95897.66
2023-01-12T02:16:27.942Z,95883.63
2023-01-12T02:19:13.941Z,95880.16
2023-01-12T02:22:15.727Z,95872.59
2023-01-12T02:25:14.035Z,95866.38
2023-01-12T02:27:50.976Z,95867.75
2023-01-12T02:30:38.972Z,95871.50
2023-01-12T02:33:05.439Z,95862.66
2023-01-12T02:35:54.011Z,95866.66
2023-01-12T02:38:31.173Z,95872.03
2023-01-12T02:41:21.219Z,95863.72
2023-01-12T02:43:47.826Z,95853.22
2023-01-12T02:46:28.284Z,95866.16
2023-01-12T02:48:58.207Z,95870.69
2023-01-12T02:51:42.015Z,95868.28
2023-01-12T02:54:12.284Z,95865.88
2023-01-12T02:56:44.184Z,95863.19
2023-01-12T02:59:40.132Z,95868.00
2023-01-12T03:02:13.675Z,95864.00
2023-01-12T03:04:40.448Z,95860.75
2023-01-12T03:07:31.138Z,95855.66
2023-01-12T03:10:20.579Z,95850.00
2023-01-12T03:12:49.478Z,95848.38
2023-01-12T03:15:18.702Z,95857.25
2023-01-12T03:17:54.737Z,95854.56
2023-01-12T03:20:28.438Z,95854.84
2023-01-12T03:23:00.837Z,95857.25
2023-01-12T03:25:31.025Z,95851.09
2023-01-12T03:27:59.944Z,95849.72
2023-01-12T03:30:35.214Z,95845.72
2023-01-12T03:33:03.169Z,95837.38
2023-01-12T03:35:35.189Z,95832.25
2023-01-12T03:38:19.072Z,95840.84
2023-01-12T03:40:57.577Z,95844.91
2023-01-12T03:43:31.074Z,95850.81
2023-01-12T03:46:23.312Z,95835.75
2023-01-12T03:49:01.486Z,95838.69
2023-01-12T03:51:33.948Z,95828.47
2023-01-12T03:54:02.683Z,95823.91
2023-01-12T03:56:33.616Z,95833.06
2023-01-12T03:59:01.071Z,95826.63
2023-01-12T04:01:27.659Z,95833.06
2023-01-12T04:03:54.196Z,95832.25
2023-01-12T04:06:21.083Z,95826.06
2023-01-12T04:08:47.571Z,95829.84
2023-01-12T04:11:14.104Z,95819.09
2023-01-12T04:13:40.556Z,95821.22
2023-01-12T04:16:07.279Z,95813.41
2023-01-12T04:18:33.784Z,95808.03
2023-01-12T04:21:00.400Z,95811.56
2023-01-12T04:23:26.876Z,95812.88
2023-01-12T04:25:53.376Z,95819.06
2023-01-12T04:28:19.887Z,95825.53
2023-01-12T04:30:46.357Z,95824.72
2023-01-12T04:33:12.828Z,95818.81
2023-01-12T04:35:39.308Z,95825.25
2023-01-12T04:38:09.332Z,95817.44
2023-01-12T04:40:35.988Z,95826.59
2023-01-12T04:43:02.542Z,95826.88
2023-01-12T04:45:31.519Z,95820.97
2023-01-12T04:48:06.374Z,95824.72
2023-01-12T04:50:33.325Z,95821.50
2023-01-12T04:53:02.822Z,95811.00
2023-01-12T04:55:29.430Z,95808.84
2023-01-12T04:57:56.533Z,95804.81
2023-01-12T05:00:23.486Z,95801.84
2023-01-12T05:02:50.148Z,95802.91
2023-01-12T05:05:16.729Z,95806.13
2023-01-12T05:07:43.321Z,95804.81
2023-01-12T05:10:10.535Z,95803.44
2023-01-12T05:12:37.029Z,95798.34
2023-01-12T05:15:03.829Z,95805.03
2023-01-12T05:17:32.184Z,95819.53
2023-01-12T05:20:00.784Z,95818.47
2023-01-12T05:22:27.892Z,95812.56
2023-01-12T05:24:54.567Z,95808.25
2023-01-12T05:27:21.112Z,95808.25
2023-01-12T05:29:47.617Z,95808.53
2023-01-12T05:32:14.142Z,95799.66
2023-01-12T05:34:40.756Z,95804.25
2023-01-12T05:37:07.254Z,95810.69
2023-01-12T05:39:33.919Z,95813.09
2023-01-12T05:42:00.401Z,95802.88
2023-01-12T05:44:27.037Z,95812.56
2023-01-12T05:46:53.681Z,95809.88
2023-01-12T05:49:20.228Z,95814.44
2023-01-12T05:51:46.733Z,95816.31
2023-01-12T05:54:13.240Z,95811.75
2023-01-12T05:56:39.866Z,95803.94
2023-01-12T05:59:06.440Z,95806.63
2023-01-12T06:01:32.943Z,95817.38
2023-01-12T06:04:01.111Z,95810.38
2023-01-12T06:06:28.512Z,95813.31
2023-01-12T06:08:55.087Z,95799.63
2023-01-12T06:11:21.887Z,95804.47
2023-01-12T06:13:48.360Z,95804.47
2023-01-12T06:16:15.032Z,95797.47
2023-01-12T06:18:41.931Z,95801.78
2023-01-12T06:21:09.774Z,95793.72
2023-01-12T06:23:36.614Z,95800.72
2023-01-12T06:26:05.600Z,95803.66
2023-01-12T06:28:32.245Z,95802.56
2023-01-12T06:31:01.549Z,95812.53
2023-01-12T06:33:29.330Z,95806.34
2023-01-12T06:35:56.514Z,95810.34
2023-01-12T06:38:25.431Z,95807.41
2023-01-12T06:40:52.287Z,95802.81
2023-01-12T06:43:19.416Z,95803.63
2023-01-12T06:45:45.957Z,95800.69
2023-01-12T06:48:12.450Z,95801.25
2023-01-12T06:50:39.214Z,95796.94
2023-01-12T06:53:06.619Z,95800.16
2023-01-12T06:55:33.547Z,95803.66
2023-01-12T06:58:04.284Z,95807.69
2023-01-12T07:00:31.593Z,95801.25
2023-01-12T07:02:58.373Z,95802.31
2023-01-12T07:05:24.927Z,95804.72
2023-01-12T07:07:57.908Z,95809.56
2023-01-12T07:10:24.448Z,95819.53
2023-01-12T07:12:51.054Z,95811.22
2023-01-12T07:15:17.727Z,95819.00
2023-01-12T07:17:44.183Z,95811.47
2023-01-12T07:20:11.151Z,95811.47
2023-01-12T07:22:37.818Z,95811.22
2023-01-12T07:25:04.495Z,95810.41
2023-01-12T07:27:30.978Z,95806.91
2023-01-12T07:29:57.449Z,95808.25
2023-01-12T07:32:26.794Z,95813.38
2023-01-12T07:34:53.283Z,95810.41
2023-01-12T07:37:19.777Z,95805.84
2023-01-12T07:39:46.345Z,95808.25
2023-01-12T07:42:12.856Z,95812.03
2023-01-12T07:44:39.392Z,95805.59
2023-01-12T07:47:05.935Z,95817.97
2023-01-12T07:49:32.400Z,95812.03
2023-01-12T07:51:58.991Z,95809.13
2023-01-12T07:54:25.492Z,95817.72
2023-01-12T07:56:52.074Z,95814.22
2023-01-12T07:59:18.854Z,95818.81
2023-01-12T08:01:45.577Z,95809.66
2023-01-12T08:04:12.225Z,95815.03
2023-01-12T08:06:39.285Z,95808.84
2023-01-12T08:09:05.928Z,95802.94
2023-01-12T08:11:32.710Z,95799.72
2023-01-12T08:13:59.391Z,95789.22
2023-01-12T08:16:33.810Z,95780.88
2023-01-12T08:19:05.334Z,95789.19
2023-01-12T08:21:36.904Z,95797.56
2023-01-12T08:24:06.225Z,95794.31
2023-01-12T08:26:38.308Z,95797.53
2023-01-12T08:29:13.172Z,95798.91
2023-01-12T08:31:40.293Z,95795.38
2023-01-12T08:34:08.639Z,95802.91
2023-01-12T08:36:36.916Z,95798.06
2023-01-12T08:39:03.650Z,95791.88
2023-01-12T08:41:31.012Z,95784.84
2023-01-12T08:43:57.660Z,95786.22
2023-01-12T08:46:24.360Z,95793.75
2023-01-12T08:48:50.851Z,95787.28
2023-01-12T08:51:17.377Z,95782.16
2023-01-12T08:53:43.992Z,95785.63
2023-01-12T08:56:10.609Z,95788.88
2023-01-12T08:58:37.180Z,95783.19
2023-01-12T09:01:08.356Z,95772.13
2023-01-12T09:03:36.463Z,95774.22
2023-01-12T09:06:13.993Z,95777.16
2023-01-12T09:08:40.771Z,95780.63
2023-01-12T09:11:08.205Z,95787.84
2023-01-12T09:13:35.601Z,95775.41
2023-01-12T09:16:12.641Z,95780.53
2023-01-12T09:18:40.358Z,95774.00
2023-01-12T09:21:09.604Z,95771.81
2023-01-12T09:23:36.974Z,95773.91
2023-01-12T09:26:08.000Z,95769.00
2023-01-12T09:28:35.061Z,95762.47
2023-01-12T09:31:10.169Z,95765.72
2023-01-12T09:33:38.540Z,95767.28
2023-01-12T09:36:09.965Z,95768.03
2023-01-12T09:38:38.883Z,95781.75
2023-01-12T09:41:17.448Z,95776.81
2023-01-12T09:43:44.357Z,95782.97
2023-01-12T09:46:18.132Z,95778.91
2023-01-12T09:48:44.884Z,95782.59
2023-01-12T09:51:25.948Z,95778.78
2023-01-12T09:53:52.549Z,95770.63
2023-01-12T09:56:26.018Z,95779.19
2023-01-12T09:59:34.607Z,95772.13
2023-01-12T10:02:01.295Z,95769.91
2023-01-12T10:04:27.981Z,95764.72
2023-01-12T10:06:54.621Z,95766.59
2023-01-12T10:09:22.691Z,95757.63
2023-01-12T10:12:05.975Z,95752.00
2023-01-12T10:15:11.082Z,95754.84
2023-01-12T10:17:56.429Z,95749.72
2023-01-12T10:20:23.002Z,95741.53
2023-01-12T10:22:58.313Z,95737.28
2023-01-12T10:25:37.248Z,95720.44
2023-01-12T10:28:34.298Z,95713.09
2023-01-12T10:31:01.321Z,95713.75
2023-01-12T10:33:30.949Z,95706.13
2023-01-12T10:36:08.698Z,95709.34
2023-01-12T10:38:40.283Z,95706.56
2023-01-12T10:41:17.381Z,95710.81
2023-01-12T10:44:16.290Z,95707.22
2023-01-12T10:46:43.221Z,95703.06
2023-01-12T10:49:23.749Z,95693.22
2023-01-12T10:51:52.918Z,95686.63
2023-01-12T10:54:22.560Z,95686.56
2023-01-12T10:57:05.795Z,95685.97
2023-01-12T10:59:39.148Z,95679.38
2023-01-12T11:02:05.869Z,95672.28
2023-01-12T11:04:43.517Z,95660.88
2023-01-12T11:07:27.577Z,95654.88
2023-01-12T11:09:55.637Z,95642.97
2023-01-12T11:12:35.287Z,95654.28
2023-01-12T11:15:10.908Z,95649.88
2023-01-12T11:17:55.801Z,95644.47
2023-01-12T11:20:31.340Z,95643.28
2023-01-12T11:23:03.861Z,95645.59
2023-01-12T11:25:35.425Z,95646.31
2023-01-12T11:28:10.499Z,95653.22
2023-01-12T11:30:43.726Z,95648.25
2023-01-12T11:33:12.557Z,95648.44
2023-01-12T11:35:51.676Z,95643.47
2023-01-12T11:38:26.312Z,95639.03
2023-01-12T11:40:56.218Z,95634.34
2023-01-12T11:43:28.832Z,95629.91
2023-01-12T11:46:07.539Z,95633.13
2023-01-12T11:48:42.612Z,95628.09
2023-01-12T11:51:12.484Z,95620.16
2023-01-12T11:53:41.468Z,95619.88
2023-01-12T11:56:55.675Z,95617.38
2023-01-12T11:59:45.759Z,95628.59
2023-01-12T12:02:33.690Z,95617.34
2023-01-12T12:05:15.367Z,95614.56
2023-01-12T12:07:49.826Z,95611.72
2023-01-12T12:10:47.349Z,95613.94
2023-01-12T12:13:26.940Z,95624.66
2023-01-12T12:16:19.716Z,95618.25
2023-01-12T12:19:01.915Z,95617.53
2023-01-12T12:21:47.527Z,95626.97
2023-01-12T12:24:29.312Z,95623.03
2023-01-12T12:27:35.623Z,95607.09
2023-01-12T12:30:26.771Z,95602.41
2023-01-12T12:33:08.428Z,95607.19
2023-01-12T12:36:01.808Z,95616.00
2023-01-12T12:39:06.677Z,95603.47
2023-01-12T12:41:41.349Z,95588.78
2023-01-12T12:44:14.091Z,95589.59
2023-01-12T12:46:59.398Z,95591.69
2023-01-12T12:49:29.882Z,95583.75
2023-01-12T12:51:57.850Z,95580.41
2023-01-12T12:54:25.547Z,95587.72
2023-01-12T12:56:52.255Z,95575.47
2023-01-12T12:59:33.595Z,95578.69
2023-01-12T13:02:03.082Z,95570.53
2023-01-12T13:04:44.924Z,95577.59
2023-01-12T13:07:17.008Z,95581.91
2023-01-12T13:09:43.857Z,95590.41
2023-01-12T13:12:31.239Z,95578.16
2023-01-12T13:15:22.486Z,95573.03
2023-01-12T13:17:50.761Z,95582.66
2023-01-12T13:20:25.759Z,95576.72
2023-01-12T13:22:55.405Z,95577.94
2023-01-12T13:25:21.893Z,95576.91
2023-01-12T13:27:57.278Z,95574.69
2023-01-12T13:30:26.860Z,95567.94
2023-01-12T13:32:53.299Z,95574.69
2023-01-12T13:35:49.185Z,95582.81
2023-01-12T13:38:34.077Z,95576.28
2023-01-12T13:41:29.918Z,95577.09
2023-01-12T13:43:57.995Z,95568.50
2023-01-12T13:46:35.396Z,95571.69
2023-01-12T13:49:02.954Z,95570.59
2023-01-12T13:51:38.793Z,95578.75
2023-01-12T13:54:14.108Z,95573.63
2023-01-12T13:56:41.575Z,95564.38
2023-01-12T13:59:17.879Z,95562.28
2023-01-12T14:01:47.478Z,95553.94
2023-01-12T14:04:14.048Z,95559.19
2023-01-12T14:07:02.264Z,95555.84
2023-01-12T14:10:04.536Z,95564.75
2023-01-12T14:12:52.215Z,95563.47
2023-01-12T14:15:38.660Z,95566.31
2023-01-12T14:18:13.065Z,95561.78
2023-01-12T14:20:48.558Z,95570.53
2023-01-12T14:23:28.093Z,95579.59
2023-01-12T14:26:14.537Z,95589.16
2023-01-12T14:28:43.497Z,95589.78
2023-01-12T14:31:36.127Z,95577.88
2023-01-12T14:34:05.158Z,95576.97
2023-01-12T14:36:41.429Z,95580.78
2023-01-12T14:39:15.942Z,95588.09
2023-01-12T14:41:50.648Z,95571.34
2023-01-12T14:44:20.871Z,95573.25
2023-01-12T14:46:53.428Z,95565.25
2023-01-12T14:49:25.669Z,95569.06
2023-01-12T14:51:57.100Z,95577.19
2023-01-12T14:54:30.933Z,95568.06
2023-01-12T14:57:03.356Z,95573.47
2023-01-12T14:59:33.745Z,95565.66
2023-01-12T15:02:29.311Z,95562.53
2023-01-12T15:05:09.941Z,95566.97
2023-01-12T15:07:39.754Z,95568.38
2023-01-12T15:10:08.820Z,95564.88
2023-01-12T15:12:38.409Z,95566.59
2023-01-12T15:15:20.418Z,95567.00
2023-01-12T15:17:48.356Z,95569.41
2023-01-12T15:20:14.891Z,95548.97
2023-01-12T15:22:41.552Z,95548.16
2023-01-12T15:25:13.368Z,95550.97
2023-01-12T15:27:40.024Z,95565.03
2023-01-12T15:30:08.148Z,95559.69
2023-01-12T15:32:51.877Z,95556.13
2023-01-12T15:35:21.896Z,95561.41
2023-01-12T15:37:48.461Z,95564.44
2023-01-12T15:40:15.157Z,95564.72
2023-01-12T15:42:41.988Z,95564.25
2023-01-12T15:45:18.362Z,95554.31
2023-01-12T15:47:44.887Z,95557.03
2023-01-12T15:50:11.561Z,95556.50
2023-01-12T15:52:38.210Z,95558.72
2023-01-12T15:55:05.262Z,95566.06
2023-01-12T15:57:31.989Z,95559.31
2023-01-12T15:59:58.584Z,95563.47
2023-01-12T16:02:34.987Z,95568.34
2023-01-12T16:05:03.637Z,95568.34
2023-01-12T16:07:30.208Z,95564.25
2023-01-12T16:09:56.979Z,95564.66
2023-01-12T16:12:24.611Z,95568.66
2023-01-12T16:14:51.143Z,95567.44
2023-01-12T16:17:17.801Z,95559.03
2023-01-12T16:19:44.312Z,95559.84
2023-01-12T16:22:24.900Z,95557.44
2023-01-12T16:24:52.847Z,95560.75
2023-01-12T16:27:21.858Z,95553.72
2023-01-12T16:29:48.532Z,95550.72
2023-01-12T16:32:15.737Z,95545.00
2023-01-12T16:34:42.360Z,95547.72
2023-01-12T16:37:12.801Z,95551.72
2023-01-12T16:39:39.720Z,95549.72
2023-01-12T16:42:06.168Z,95544.22
2023-01-12T16:44:34.642Z,95547.41
2023-01-12T16:47:01.144Z,95547.41
2023-01-12T16:49:27.728Z,95553.31
2023-01-12T16:51:54.313Z,95540.38
2023-01-12T16:54:20.852Z,95538.78
2023-01-12T16:56:47.613Z,95553.41
2023-01-12T16:59:14.407Z,95544.81
2023-01-12T17:01:41.207Z,95556.25
2023-01-12T17:04:07.903Z,95557.63
2023-01-12T17:06:34.741Z,95550.94
2023-01-12T17:09:01.833Z,95556.94
2023-01-12T17:11:28.517Z,95538.91
2023-01-12T17:13:56.810Z,95548.91
2023-01-12T17:16:25.845Z,95544.41
2023-01-12T17:18:52.541Z,95537.41
2023-01-12T17:21:20.323Z,95550.13
2023-01-12T17:23:47.549Z,95548.03
2023-01-12T17:26:17.339Z,95543.69
2023-01-12T17:28:45.193Z,95530.19
2023-01-12T17:31:14.828Z,95542.97
2023-01-12T17:33:42.022Z,95528.06
2023-01-12T17:36:11.032Z,95536.47
2023-01-12T17:38:37.952Z,95547.59
2023-01-12T17:41:09.364Z,95538.50
2023-01-12T17:43:36.185Z,95544.41
2023-01-12T17:46:02.729Z,95538.19
2023-01-12T17:48:29.348Z,95538.50
2023-01-12T17:50:55.909Z,95535.78
2023-01-12T17:53:22.391Z,95541.19
2023-01-12T17:55:50.369Z,95556.31
2023-01-12T17:58:17.508Z,95548.19
2023-01-12T18:00:44.224Z,95541.19
2023-01-12T18:03:10.789Z,95539.59
2023-01-12T18:05:37.301Z,95534.47
2023-01-12T18:08:03.814Z,95535.06
2023-01-12T18:10:30.443Z,95527.25
2023-01-12T18:12:57.012Z,95533.25
2023-01-12T18:15:23.676Z,95519.75
2023-01-12T18:17:50.342Z,95511.13
2023-01-12T18:20:17.203Z,95517.13
2023-01-12T18:22:44.816Z,95512.31
2023-01-12T18:25:11.451Z,95519.41
2023-01-12T18:27:41.997Z,95513.03
2023-01-12T18:30:09.095Z,95508.81
2023-01-12T18:32:35.656Z,95500.56
2023-01-12T18:35:02.533Z,95502.97
2023-01-12T18:37:29.314Z,95498.97
2023-01-12T18:39:55.862Z,95497.66
2023-01-12T18:42:22.520Z,95505.56
2023-01-12T18:44:49.076Z,95488.56
2023-01-12T18:47:16.863Z,95488.84
2023-01-12T18:49:44.017Z,95483.22
2023-01-12T18:52:12.241Z,95485.44
2023-01-12T18:54:38.996Z,95483.03
2023-01-12T18:57:05.620Z,95480.63
2023-01-12T18:59:32.119Z,95482.00
2023-01-12T19:01:58.737Z,95471.78
2023-01-12T19:04:28.166Z,95473.97
2023-01-12T19:06:54.721Z,95473.78
2023-01-12T19:09:21.430Z,95470.03
2023-01-12T19:11:47.986Z,95463.34
2023-01-12T19:26:20.223Z,95458.56
2023-01-12T19:28:46.894Z,95454.53
2023-01-12T19:31:13.904Z,95446.25
2023-01-12T19:33:40.968Z,95452.72
2023-01-12T19:36:10.027Z,95453.31
2023-01-12T19:38:37.446Z,95450.91
2023-01-12T19:41:05.770Z,95445.00
2023-01-12T19:43:32.279Z,95448.78
2023-01-12T19:46:01.163Z,95448.00
2023-01-12T19:48:28.651Z,95441.59
2023-01-12T19:50:55.304Z,95448.38
2023-01-12T19:53:24.805Z,95448.66
2023-01-12T19:55:51.968Z,95448.66
2023-01-12T19:58:19.501Z,95441.94
2023-01-12T20:00:46.134Z,95447.94
2023-01-12T20:03:15.230Z,95437.72
2023-01-12T20:05:43.012Z,95446.44
2023-01-12T20:08:10.689Z,95436.50
2023-01-12T20:10:37.309Z,95435.19
2023-01-12T20:13:05.156Z,95439.25
2023-01-12T20:15:32.282Z,95434.75
2023-01-12T20:17:59.374Z,95434.25
2023-01-12T20:20:26.851Z,95424.03
2023-01-12T20:22:53.887Z,95434.31
2023-01-12T20:25:21.524Z,95442.19
2023-01-12T20:27:49.414Z,95437.38
2023-01-12T20:30:31.971Z,95440.66
2023-01-12T20:33:03.310Z,95436.94
2023-01-12T20:35:30.937Z,95434.53
2023-01-12T20:37:57.443Z,95435.41
2023-01-12T20:40:24.179Z,95433.81
2023-01-12T20:42:50.707Z,95440.56
2023-01-12T20:45:17.172Z,95439.84
2023-01-12T20:47:43.649Z,95438.81
2023-01-12T20:50:11.857Z,95449.38
2023-01-12T20:52:38.471Z,95438.13
2023-01-12T20:55:05.553Z,95430.13
2023-01-12T20:57:35.022Z,95440.16
2023-01-12T21:00:01.915Z,95428.66
2023-01-12T21:02:28.462Z,95425.19
2023-01-12T21:04:55.003Z,95421.19
2023-01-12T21:07:21.910Z,95409.09
2023-01-12T21:09:48.550Z,95405.06
2023-01-12T21:12:15.061Z,95399.97
2023-01-12T21:14:41.794Z,95411.34
2023-01-12T21:17:08.348Z,95411.63
2023-01-12T21:19:34.975Z,95407.31
2023-01-12T21:22:01.648Z,95410.31
2023-01-12T21:24:28.364Z,95404.91
2023-01-12T21:26:55.148Z,95401.13
2023-01-12T21:29:22.135Z,95411.38
2023-01-12T21:31:48.735Z,95416.47
2023-01-12T21:34:15.375Z,95413.06
2023-01-12T21:36:41.847Z,95424.63
2023-01-12T21:39:08.571Z,95428.66
2023-01-12T21:41:35.080Z,95419.25
2023-01-12T21:44:02.940Z,95427.63
2023-01-12T21:46:29.706Z,95421.72
2023-01-12T21:48:56.336Z,95419.09
2023-01-12T21:51:22.993Z,95420.16
2023-01-12T21:53:49.477Z,95426.13
2023-01-12T21:56:15.979Z,95424.50
2023-01-12T21:58:42.523Z,95428.88
2023-01-12T22:01:11.691Z,95416.19
2023-01-12T22:03:38.775Z,95425.13
2023-01-12T22:06:07.846Z,95427.31
2023-01-12T22:08:36.576Z,95426.22
2023-01-12T22:11:11.712Z,95418.94
2023-01-12T22:13:39.266Z,95422.94
2023-01-12T22:16:08.448Z,95418.88
2023-01-12T22:18:35.713Z,95412.66
2023-01-12T22:21:04.436Z,95412.09
2023-01-12T22:23:31.255Z,95386.44
2023-01-12T22:26:02.385Z,95406.34
2023-01-12T22:28:29.103Z,95400.59
2023-01-12T22:30:55.664Z,95412.72
2023-01-12T22:33:22.225Z,95403.78
2023-01-12T22:35:48.906Z,95415.56
2023-01-12T22:38:15.669Z,95413.13
2023-01-12T22:40:42.280Z,95405.25
2023-01-12T22:43:09.145Z,95411.66
2023-01-12T22:45:35.739Z,95403.81
2023-01-12T22:48:02.429Z,95397.84
2023-01-12T22:50:28.960Z,95400.25
2023-01-12T22:52:55.744Z,95398.06
2023-01-12T22:55:24.317Z,95382.38
2023-01-12T22:57:51.288Z,95382.63
2023-01-12T23:00:19.363Z,95388.81
2023-01-12T23:02:46.183Z,95379.63
2023-01-12T23:05:12.673Z,95379.31
2023-01-12T23:07:39.220Z,95373.66
2023-01-12T23:10:06.570Z,95382.56
2023-01-12T23:12:33.085Z,95381.72
2023-01-12T23:14:59.564Z,95375.75
2023-01-12T23:17:26.157Z,95377.88
2023-01-12T23:19:52.570Z,95379.19
2023-01-12T23:22:19.165Z,95378.91
2023-01-12T23:24:45.621Z,95371.31
2023-01-12T23:27:12.069Z,95363.72
2023-01-12T23:29:38.528Z,95366.97
2023-01-12T23:32:05.345Z,95361.78
2023-01-12T23:34:31.890Z,95366.59
2023-01-12T23:36:58.469Z,95360.63
2023-01-12T23:39:24.925Z,95359.75
2023-01-12T23:41:51.538Z,95360.25
2023-01-12T23:44:18.203Z,95359.34
2023-01-12T23:46:44.663Z,95362.25
2023-01-12T23:49:11.423Z,95356.56
2023-01-12T23:51:38.017Z,95357.09
2023-01-12T23:54:04.827Z,95356.50
2023-01-12T23:56:33.127Z,95356.81
2023-01-12T23:58:59.624Z,95358.59
